createdAt,value
2018-03-26T00:01:55.416Z,7.26
2018-03-26T00:04:26.058Z,7.27
2018-03-26T00:06:56.784Z,7.24
2018-03-26T00:09:27.490Z,7.23
2018-03-26T00:11:58.027Z,7.26
2018-03-26T00:14:28.587Z,7.28
2018-03-26T00:17:00.162Z,7.28
2018-03-26T00:19:30.750Z,7.28
2018-03-26T00:22:01.671Z,7.28
2018-03-26T00:24:32.166Z,7.36
2018-03-26T00:27:02.679Z,7.33
2018-03-26T00:29:32.980Z,7.33
2018-03-26T00:32:03.893Z,7.30
2018-03-26T00:34:34.435Z,7.35
2018-03-26T00:37:05.065Z,7.31
2018-03-26T00:39:36.445Z,7.33
2018-03-26T00:42:07.264Z,7.30
2018-03-26T00:44:37.789Z,7.35
2018-03-26T00:47:08.425Z,7.32
2018-03-26T00:49:39.829Z,7.43
2018-03-26T00:52:10.274Z,7.43
2018-03-26T00:54:40.834Z,7.45
2018-03-26T00:57:12.684Z,7.40
2018-03-26T00:59:43.629Z,7.36
2018-03-26T01:02:14.739Z,7.42
2018-03-26T01:04:45.653Z,7.49
2018-03-26T01:07:16.272Z,7.55
2018-03-26T01:09:46.671Z,7.49
2018-03-26T01:12:17.441Z,7.53
2018-03-26T01:14:48.088Z,7.57
2018-03-26T01:17:18.637Z,7.47
2018-03-26T01:19:49.522Z,7.42
2018-03-26T01:22:20.389Z,7.29
2018-03-26T01:24:50.823Z,7.17
2018-03-26T01:27:20.679Z,7.08
2018-03-26T01:29:51.182Z,6.99
2018-03-26T01:32:21.751Z,6.97
2018-03-26T01:34:52.027Z,6.94
2018-03-26T01:37:22.596Z,6.84
2018-03-26T01:39:53.664Z,6.92
2018-03-26T01:42:26.821Z,6.95
2018-03-26T01:44:57.261Z,6.87
2018-03-26T01:47:27.568Z,6.87
2018-03-26T01:49:58.485Z,6.92
2018-03-26T01:52:28.936Z,6.93
2018-03-26T01:54:59.385Z,6.97
2018-03-26T01:57:29.674Z,7.07
2018-03-26T02:00:00.115Z,7.17
2018-03-26T02:02:32.361Z,7.40
2018-03-26T02:05:03.091Z,7.42
2018-03-26T02:07:33.787Z,7.40
2018-03-26T02:10:04.514Z,7.36
2018-03-26T02:12:35.022Z,7.39
2018-03-26T02:15:05.850Z,7.28
2018-03-26T02:17:36.186Z,7.26
2018-03-26T02:20:06.588Z,7.42
2018-03-26T02:22:37.639Z,7.49
2018-03-26T02:25:08.275Z,7.47
2018-03-26T02:27:38.874Z,7.57
2018-03-26T02:30:09.670Z,7.63
2018-03-26T02:32:40.391Z,7.71
2018-03-26T02:35:11.031Z,7.78
2018-03-26T02:37:41.329Z,7.80
2018-03-26T02:40:11.851Z,7.75
2018-03-26T02:42:41.881Z,7.71
2018-03-26T02:45:12.622Z,7.66
2018-03-26T02:47:43.159Z,7.69
2018-03-26T02:50:15.204Z,7.72
2018-03-26T02:52:45.747Z,7.74
2018-03-26T02:55:16.369Z,7.68
2018-03-26T02:57:47.043Z,7.67
2018-03-26T03:00:18.151Z,7.72
2018-03-26T03:02:47.960Z,7.84
2018-03-26T03:05:19.015Z,7.85
2018-03-26T03:07:48.996Z,7.89
2018-03-26T03:10:19.822Z,7.82
2018-03-26T03:12:49.773Z,7.82
2018-03-26T03:15:20.893Z,7.76
2018-03-26T03:17:50.933Z,7.87
2018-03-26T03:20:21.670Z,7.97
2018-03-26T03:22:52.508Z,7.90
2018-03-26T03:25:23.444Z,7.88
2018-03-26T03:27:54.398Z,7.93
2018-03-26T03:30:25.204Z,7.91
2018-03-26T03:32:55.835Z,7.88
2018-03-26T03:35:26.773Z,7.94
2018-03-26T03:37:57.670Z,8.02
2018-03-26T03:40:28.359Z,8.02
2018-03-26T03:42:59.665Z,8.11
2018-03-26T03:45:29.615Z,8.24
2018-03-26T03:48:00.151Z,8.31
2018-03-26T03:50:31.320Z,8.19
2018-03-26T03:53:02.958Z,8.20
2018-03-26T03:55:33.273Z,8.14
2018-03-26T03:58:04.035Z,8.11
2018-03-26T04:00:34.810Z,8.11
2018-03-26T04:03:07.015Z,8.24
2018-03-26T04:05:37.332Z,8.22
2018-03-26T04:08:08.342Z,8.10
2018-03-26T04:10:39.221Z,8.13
2018-03-26T04:13:10.647Z,8.08
2018-03-26T04:15:41.173Z,8.04
2018-03-26T04:18:11.975Z,8.06
2018-03-26T04:20:42.558Z,8.17
2018-03-26T04:23:13.509Z,8.11
2018-03-26T04:25:43.614Z,8.12
2018-03-26T04:28:14.169Z,8.21
2018-03-26T04:30:45.034Z,8.32
2018-03-26T04:33:15.516Z,8.32
2018-03-26T04:35:45.795Z,8.33
2018-03-26T04:38:16.734Z,8.23
2018-03-26T04:40:47.489Z,8.14
2018-03-26T04:43:17.816Z,8.14
2018-03-26T04:45:49.494Z,8.17
2018-03-26T04:48:20.012Z,8.08
2018-03-26T04:50:50.754Z,8.05
2018-03-26T04:53:21.432Z,7.99
2018-03-26T04:55:51.823Z,7.96
2018-03-26T04:58:22.793Z,8.03
2018-03-26T05:00:53.344Z,7.98
2018-03-26T05:03:24.015Z,8.07
2018-03-26T05:05:54.439Z,8.09
2018-03-26T05:08:25.116Z,8.09
2018-03-26T05:10:55.468Z,8.05
2018-03-26T05:13:26.427Z,8.11
2018-03-26T05:15:56.741Z,8.09
2018-03-26T05:18:28.017Z,8.20
2018-03-26T05:20:59.227Z,8.24
2018-03-26T05:23:30.054Z,8.28
2018-03-26T05:26:00.889Z,8.39
2018-03-26T05:28:32.497Z,8.36
2018-03-26T05:31:03.894Z,8.39
2018-03-26T05:33:34.122Z,8.40
2018-03-26T05:36:03.877Z,8.47
2018-03-26T05:38:33.842Z,8.47
2018-03-26T05:41:05.167Z,8.52
2018-03-26T05:43:36.120Z,8.57
2018-03-26T05:46:06.961Z,8.58
2018-03-26T05:48:38.331Z,8.46
2018-03-26T05:51:08.182Z,8.52
2018-03-26T05:53:38.909Z,8.59
2018-03-26T05:56:09.726Z,8.68
2018-03-26T05:58:40.241Z,8.66
2018-03-26T06:01:11.648Z,8.74
2018-03-26T06:03:41.726Z,8.57
2018-03-26T06:06:11.645Z,8.67
2018-03-26T06:08:42.283Z,8.75
2018-03-26T06:11:13.074Z,8.81
2018-03-26T06:13:43.826Z,8.81
2018-03-26T06:16:14.775Z,8.70
2018-03-26T06:18:45.442Z,8.70
2018-03-26T06:21:15.950Z,8.73
2018-03-26T06:23:46.685Z,8.72
2018-03-26T06:26:17.108Z,8.88
2018-03-26T06:28:47.768Z,8.88
2018-03-26T06:31:18.833Z,9.03
2018-03-26T06:33:49.204Z,9.07
2018-03-26T06:36:36.222Z,9.01
2018-03-26T06:39:12.468Z,8.95
2018-03-26T06:41:43.696Z,9.10
2018-03-26T06:44:14.428Z,9.05
2018-03-26T06:46:45.402Z,9.07
2018-03-26T06:49:15.638Z,9.11
2018-03-26T06:51:46.342Z,9.13
2018-03-26T06:54:16.791Z,9.08
2018-03-26T06:56:47.760Z,9.13
2018-03-26T06:59:18.439Z,9.14
2018-03-26T07:01:49.348Z,8.99
2018-03-26T07:04:20.304Z,9.07
2018-03-26T07:06:51.562Z,9.08
2018-03-26T07:09:21.943Z,9.15
2018-03-26T07:11:52.441Z,9.07
2018-03-26T07:14:23.342Z,8.93
2018-03-26T07:16:53.884Z,8.99
2018-03-26T07:19:24.334Z,8.97
2018-03-26T07:21:54.890Z,9.07
2018-03-26T07:24:26.024Z,9.15
2018-03-26T07:26:56.919Z,8.90
2018-03-26T07:29:27.258Z,8.70
2018-03-26T07:31:57.849Z,8.56
2018-03-26T07:34:29.304Z,8.25
2018-03-26T07:36:59.996Z,7.94
2018-03-26T07:39:30.799Z,7.89
2018-03-26T07:42:01.415Z,7.76
2018-03-26T07:44:32.086Z,7.73
2018-03-26T07:47:02.524Z,7.74
2018-03-26T07:49:33.324Z,7.87
2018-03-26T07:52:03.873Z,7.79
2018-03-26T07:54:34.727Z,7.72
2018-03-26T07:57:05.472Z,7.68
2018-03-26T07:59:35.477Z,7.70
2018-03-26T08:02:06.031Z,7.79
2018-03-26T08:04:37.040Z,7.67
2018-03-26T08:07:07.783Z,7.70
2018-03-26T08:09:38.481Z,7.69
2018-03-26T08:12:09.940Z,7.67
2018-03-26T08:14:40.583Z,7.72
2018-03-26T08:17:11.420Z,7.74
2018-03-26T08:19:42.111Z,7.60
2018-03-26T08:22:13.249Z,7.72
2018-03-26T08:24:44.182Z,7.73
2018-03-26T08:27:14.665Z,7.72
2018-03-26T08:29:45.149Z,7.78
2018-03-26T08:32:16.210Z,7.98
2018-03-26T08:34:47.078Z,7.89
2018-03-26T08:37:17.533Z,8.23
2018-03-26T08:39:48.965Z,8.40
2018-03-26T08:42:19.648Z,8.69
2018-03-26T08:44:50.539Z,8.71
2018-03-26T08:47:21.133Z,8.93
2018-03-26T08:49:51.026Z,8.93
2018-03-26T08:52:22.012Z,8.97
2018-03-26T08:54:52.827Z,9.13
2018-03-26T08:57:24.000Z,9.24
2018-03-26T08:59:54.996Z,8.99
2018-03-26T09:02:26.098Z,9.01
2018-03-26T09:04:57.393Z,9.24
2018-03-26T09:07:28.692Z,9.20
2018-03-26T09:09:59.632Z,9.24
2018-03-26T09:12:30.548Z,9.28
2018-03-26T09:15:01.393Z,9.15
2018-03-26T09:17:32.111Z,9.28
2018-03-26T09:20:03.316Z,9.43
2018-03-26T09:22:33.458Z,9.34
2018-03-26T09:25:04.960Z,9.27
2018-03-26T09:27:36.040Z,9.23
2018-03-26T09:30:07.220Z,9.22
2018-03-26T09:32:38.158Z,9.32
2018-03-26T09:35:08.453Z,9.37
2018-03-26T09:37:39.076Z,9.53
2018-03-26T09:40:09.844Z,9.56
2018-03-26T09:42:40.185Z,9.58
2018-03-26T09:45:10.393Z,9.53
2018-03-26T09:47:40.773Z,9.67
2018-03-26T09:50:11.591Z,9.84
2018-03-26T09:52:42.543Z,9.61
2018-03-26T09:55:13.106Z,9.60
2018-03-26T09:57:44.272Z,9.53
2018-03-26T10:00:17.576Z,9.65
2018-03-26T10:02:48.402Z,9.69
2018-03-26T10:05:18.922Z,9.71
2018-03-26T10:07:49.638Z,9.59
2018-03-26T10:10:20.291Z,9.72
2018-03-26T10:12:50.928Z,9.72
2018-03-26T10:15:21.566Z,9.59
2018-03-26T10:17:52.192Z,9.75
2018-03-26T10:20:22.993Z,9.98
2018-03-26T10:22:53.248Z,10.01
2018-03-26T10:25:23.773Z,9.94
2018-03-26T10:27:55.437Z,10.10
2018-03-26T10:30:26.166Z,10.14
2018-03-26T10:32:57.351Z,10.24
2018-03-26T10:35:27.838Z,10.23
2018-03-26T10:37:59.194Z,10.14
2018-03-26T10:40:30.128Z,10.09
2018-03-26T10:43:00.870Z,10.06
2018-03-26T10:45:31.391Z,9.99
2018-03-26T10:48:02.023Z,9.78
2018-03-26T10:50:31.940Z,9.59
2018-03-26T10:53:02.877Z,9.58
2018-03-26T10:55:33.836Z,9.56
2018-03-26T10:58:04.796Z,9.43
2018-03-26T11:00:35.278Z,9.40
2018-03-26T11:03:05.947Z,9.29
2018-03-26T11:05:37.330Z,9.22
2018-03-26T11:08:07.852Z,9.31
2018-03-26T11:10:38.545Z,9.27
2018-03-26T11:13:09.482Z,9.17
2018-03-26T11:15:40.070Z,9.26
2018-03-26T11:18:10.514Z,9.19
2018-03-26T11:20:41.461Z,9.29
2018-03-26T11:23:12.312Z,9.07
2018-03-26T11:25:42.911Z,8.96
2018-03-26T11:28:12.753Z,8.92
2018-03-26T11:30:43.468Z,9.12
2018-03-26T11:33:14.071Z,9.00
2018-03-26T11:35:44.746Z,9.14
2018-03-26T11:38:15.739Z,9.23
2018-03-26T11:40:46.156Z,9.21
2018-03-26T11:43:16.804Z,9.32
2018-03-26T11:45:47.084Z,9.22
2018-03-26T11:48:17.859Z,9.14
2018-03-26T11:50:48.229Z,9.23
2018-03-26T11:53:19.177Z,9.20
2018-03-26T11:55:49.946Z,8.94
2018-03-26T11:58:20.617Z,8.95
2018-03-26T12:00:51.585Z,9.00
2018-03-26T12:03:23.642Z,9.10
2018-03-26T12:05:53.918Z,9.03
2018-03-26T12:08:24.476Z,9.05
2018-03-26T12:10:55.218Z,9.20
2018-03-26T12:13:25.858Z,9.20
2018-03-26T12:15:56.942Z,9.14
2018-03-26T12:18:27.472Z,9.18
2018-03-26T12:21:01.808Z,9.04
2018-03-26T12:23:43.988Z,9.01
2018-03-26T12:26:14.261Z,8.99
2018-03-26T12:28:56.472Z,9.07
2018-03-26T12:31:27.439Z,8.96
2018-03-26T12:34:09.508Z,9.08
2018-03-26T12:36:39.797Z,8.92
2018-03-26T12:39:10.641Z,9.04
2018-03-26T12:41:41.295Z,9.18
2018-03-26T12:44:11.856Z,9.15
2018-03-26T12:46:46.178Z,9.18
2018-03-26T12:49:16.568Z,9.14
2018-03-26T12:51:58.690Z,9.15
2018-03-26T12:54:28.704Z,9.15
2018-03-26T12:57:10.599Z,8.91
2018-03-26T12:59:41.456Z,8.95
2018-03-26T13:02:23.022Z,9.05
2018-03-26T13:04:53.839Z,8.99
2018-03-26T13:07:25.212Z,9.06
2018-03-26T13:09:55.819Z,8.93
2018-03-26T13:12:26.156Z,9.02
2018-03-26T13:14:56.402Z,9.15
2018-03-26T13:17:27.164Z,9.11
2018-03-26T13:19:57.846Z,9.23
2018-03-26T13:22:28.687Z,9.19
2018-03-26T13:24:59.599Z,9.06
2018-03-26T13:27:30.441Z,9.07
2018-03-26T13:30:00.769Z,9.12
2018-03-26T13:32:31.577Z,9.11
2018-03-26T13:35:02.622Z,9.11
2018-03-26T13:37:34.169Z,9.25
2018-03-26T13:40:05.562Z,9.28
2018-03-26T13:42:35.740Z,9.43
2018-03-26T13:45:06.015Z,9.45
2018-03-26T13:47:36.434Z,9.21
2018-03-26T13:50:07.041Z,9.08
2018-03-26T13:52:37.384Z,9.02
2018-03-26T13:55:08.234Z,9.16
2018-03-26T13:57:39.021Z,9.10
2018-03-26T14:00:10.096Z,9.15
2018-03-26T14:02:40.737Z,9.21
2018-03-26T14:05:11.118Z,9.12
2018-03-26T14:07:42.181Z,9.28
2018-03-26T14:10:24.327Z,9.28
2018-03-26T14:13:06.007Z,9.44
2018-03-26T14:15:48.354Z,9.50
2018-03-26T14:18:19.138Z,9.42
2018-03-26T14:20:49.775Z,9.17
2018-03-26T14:23:20.523Z,9.09
2018-03-26T14:25:51.147Z,9.12
2018-03-26T14:28:21.978Z,9.08
2018-03-26T14:30:52.311Z,8.91
2018-03-26T14:33:22.828Z,8.84
2018-03-26T14:35:52.963Z,8.87
2018-03-26T14:38:23.899Z,8.87
2018-03-26T14:40:54.412Z,8.95
2018-03-26T14:43:25.280Z,9.00
2018-03-26T14:45:56.483Z,9.13
2018-03-26T14:48:27.497Z,9.09
2018-03-26T14:50:58.336Z,9.20
2018-03-26T14:53:29.211Z,9.25
2018-03-26T14:56:00.753Z,9.27
2018-03-26T14:58:31.777Z,9.28
2018-03-26T15:01:02.680Z,9.28
2018-03-26T15:03:34.200Z,9.21
2018-03-26T15:06:05.318Z,9.14
2018-03-26T15:08:35.462Z,9.09
2018-03-26T15:11:06.611Z,9.07
2018-03-26T15:13:37.613Z,9.04
2018-03-26T15:16:07.968Z,9.03
2018-03-26T15:18:38.295Z,9.03
2018-03-26T15:21:09.234Z,8.97
2018-03-26T15:23:40.051Z,8.97
2018-03-26T15:26:11.267Z,9.03
2018-03-26T15:28:42.508Z,9.04
2018-03-26T15:31:13.630Z,8.90
2018-03-26T15:33:43.982Z,9.07
2018-03-26T15:36:14.565Z,9.19
2018-03-26T15:38:45.622Z,9.21
2018-03-26T15:41:16.925Z,9.12
2018-03-26T15:43:47.685Z,9.02
2018-03-26T15:46:18.847Z,9.05
2018-03-26T15:48:48.737Z,9.14
2018-03-26T15:51:19.295Z,9.06
2018-03-26T15:53:49.706Z,9.04
2018-03-26T15:56:20.047Z,9.12
2018-03-26T15:58:50.761Z,9.06
2018-03-26T16:01:21.451Z,9.04
2018-03-26T16:03:52.392Z,9.12
2018-03-26T16:06:22.922Z,9.01
2018-03-26T16:08:53.549Z,9.09
2018-03-26T16:11:24.207Z,9.03
2018-03-26T16:13:54.040Z,9.09
2018-03-26T16:16:24.873Z,9.09
2018-03-26T16:18:55.782Z,9.13
2018-03-26T16:21:27.214Z,8.95
2018-03-26T16:23:57.898Z,8.89
2018-03-26T16:26:29.019Z,8.99
2018-03-26T16:29:00.142Z,8.88
2018-03-26T16:31:30.903Z,8.97
2018-03-26T16:34:01.540Z,8.94
2018-03-26T16:36:31.512Z,8.97
2018-03-26T16:39:02.095Z,9.03
2018-03-26T16:41:44.305Z,9.08
2018-03-26T16:44:15.423Z,8.99
2018-03-26T16:46:46.261Z,9.00
2018-03-26T16:49:17.349Z,8.95
2018-03-26T16:51:47.900Z,9.14
2018-03-26T16:54:18.780Z,9.19
2018-03-26T16:56:50.012Z,9.19
2018-03-26T16:59:21.114Z,9.32
2018-03-26T17:01:51.870Z,9.38
2018-03-26T17:04:22.873Z,9.32
2018-03-26T17:06:53.873Z,9.26
2018-03-26T17:09:24.590Z,9.13
2018-03-26T17:11:55.906Z,9.15
2018-03-26T17:14:26.770Z,9.03
2018-03-26T17:16:58.516Z,9.06
2018-03-26T17:19:28.385Z,8.99
2018-03-26T17:21:59.659Z,8.98
2018-03-26T17:24:30.199Z,8.94
2018-03-26T17:27:01.064Z,8.86
2018-03-26T17:29:32.011Z,8.84
2018-03-26T17:32:03.134Z,8.83
2018-03-26T17:34:34.415Z,8.85
2018-03-26T17:37:05.132Z,8.94
2018-03-26T17:39:35.579Z,8.94
2018-03-26T17:42:07.588Z,8.92
2018-03-26T17:44:38.102Z,8.88
2018-03-26T17:47:09.457Z,8.87
2018-03-26T17:49:40.133Z,8.79
2018-03-26T17:52:11.226Z,8.76
2018-03-26T17:54:42.465Z,8.72
2018-03-26T17:57:13.312Z,8.77
2018-03-26T17:59:44.521Z,8.83
2018-03-26T18:02:15.767Z,8.85
2018-03-26T18:04:46.404Z,8.93
2018-03-26T18:07:17.241Z,8.91
2018-03-26T18:09:48.515Z,8.86
2018-03-26T18:12:19.134Z,8.73
2018-03-26T18:14:49.952Z,8.57
2018-03-26T18:17:20.483Z,8.58
2018-03-26T18:19:50.918Z,8.50
2018-03-26T18:22:20.897Z,8.50
2018-03-26T18:24:52.147Z,8.51
2018-03-26T18:27:23.005Z,8.50
2018-03-26T18:29:53.745Z,8.56
2018-03-26T18:32:24.295Z,8.56
2018-03-26T18:34:54.975Z,8.49
2018-03-26T18:37:25.847Z,8.40
2018-03-26T18:39:56.437Z,8.44
2018-03-26T18:42:26.917Z,8.61
2018-03-26T18:44:57.605Z,8.61
2018-03-26T18:47:28.370Z,8.55
2018-03-26T18:49:59.489Z,8.75
2018-03-26T18:52:29.852Z,8.81
2018-03-26T18:55:00.590Z,8.81
2018-03-26T18:57:30.492Z,8.61
2018-03-26T19:00:01.545Z,8.45
2018-03-26T19:02:32.058Z,8.61
2018-03-26T19:05:02.347Z,8.68
2018-03-26T19:07:33.031Z,8.83
2018-03-26T19:10:03.709Z,8.75
2018-03-26T19:12:33.937Z,8.86
2018-03-26T19:15:04.458Z,8.89
2018-03-26T19:17:34.515Z,8.82
2018-03-26T19:20:05.261Z,8.84
2018-03-26T19:22:35.782Z,8.88
2018-03-26T19:25:06.636Z,8.87
2018-03-26T19:27:37.365Z,8.82
2018-03-26T19:30:07.993Z,8.76
2018-03-26T19:32:38.843Z,8.76
2018-03-26T19:35:09.765Z,8.71
2018-03-26T19:37:40.612Z,8.78
2018-03-26T19:40:11.594Z,8.85
2018-03-26T19:42:41.826Z,8.83
2018-03-26T19:45:12.083Z,8.82
2018-03-26T19:47:42.823Z,8.83
2018-03-26T19:50:13.615Z,8.83
2018-03-26T19:52:44.603Z,8.76
2018-03-26T19:55:15.007Z,8.86
2018-03-26T19:57:45.346Z,8.95
2018-03-26T20:00:16.350Z,9.04
2018-03-26T20:02:47.441Z,9.12
2018-03-26T20:05:17.639Z,8.99
2018-03-26T20:07:48.662Z,9.00
2018-03-26T20:10:19.398Z,8.89
2018-03-26T20:12:50.332Z,8.94
2018-03-26T20:15:21.313Z,8.85
2018-03-26T20:17:52.150Z,8.80
2018-03-26T20:20:22.886Z,8.79
2018-03-26T20:22:54.029Z,8.88
2018-03-26T20:25:24.617Z,8.92
2018-03-26T20:27:55.613Z,8.96
2018-03-26T20:30:26.622Z,8.92
2018-03-26T20:32:57.129Z,8.82
2018-03-26T20:35:28.483Z,8.87
2018-03-26T20:37:59.299Z,8.81
2018-03-26T20:40:30.083Z,8.87
2018-03-26T20:43:00.911Z,8.84
2018-03-26T20:45:31.814Z,8.94
2018-03-26T20:48:02.742Z,8.90
2018-03-26T20:50:33.083Z,8.96
2018-03-26T20:53:03.631Z,8.95
2018-03-26T20:55:34.376Z,8.92
2018-03-26T20:58:04.825Z,8.94
2018-03-26T21:00:35.702Z,8.97
2018-03-26T21:03:06.182Z,9.03
2018-03-26T21:05:36.799Z,8.88
2018-03-26T21:08:07.428Z,8.89
2018-03-26T21:10:38.579Z,8.98
2018-03-26T21:13:09.684Z,8.86
2018-03-26T21:15:40.269Z,8.90
2018-03-26T21:18:11.152Z,8.97
2018-03-26T21:20:41.236Z,8.93
2018-03-26T21:23:11.830Z,8.97
2018-03-26T21:25:42.468Z,9.09
2018-03-26T21:28:13.317Z,9.12
2018-03-26T21:30:45.428Z,9.08
2018-03-26T21:33:15.959Z,9.03
2018-03-26T21:35:46.747Z,8.99
2018-03-26T21:38:17.369Z,8.91
2018-03-26T21:40:48.016Z,8.83
2018-03-26T21:43:17.911Z,8.91
2018-03-26T21:45:48.355Z,8.88
2018-03-26T21:48:19.785Z,8.85
2018-03-26T21:50:52.274Z,8.82
2018-03-26T21:53:23.079Z,8.94
2018-03-26T21:55:53.216Z,8.85
2018-03-26T21:58:24.163Z,8.83
2018-03-26T22:00:54.770Z,8.73
2018-03-26T22:03:25.582Z,8.73
2018-03-26T22:05:57.153Z,8.70
2018-03-26T22:08:27.711Z,8.69
2018-03-26T22:10:58.936Z,8.72
2018-03-26T22:13:29.080Z,8.77
2018-03-26T22:15:59.419Z,8.71
2018-03-26T22:18:29.311Z,8.67
2018-03-26T22:20:59.720Z,8.62
2018-03-26T22:23:29.979Z,8.67
2018-03-26T22:26:00.423Z,8.60
2018-03-26T22:28:31.224Z,8.61
2018-03-26T22:31:02.061Z,8.48
2018-03-26T22:33:33.136Z,8.40
2018-03-26T22:36:03.135Z,8.31
2018-03-26T22:38:33.055Z,8.31
2018-03-26T22:41:03.541Z,8.28
2018-03-26T22:43:34.082Z,8.24
2018-03-26T22:46:04.909Z,8.11
2018-03-26T22:48:35.449Z,7.94
2018-03-26T22:51:06.181Z,7.78
2018-03-26T22:53:36.625Z,7.75
2018-03-26T22:56:07.265Z,7.78
2018-03-26T22:58:37.884Z,7.68
2018-03-26T23:01:07.693Z,7.52
2018-03-26T23:03:38.250Z,7.28
2018-03-26T23:06:08.887Z,7.23
2018-03-26T23:08:39.548Z,7.27
2018-03-26T23:11:10.358Z,7.23
2018-03-26T23:13:41.213Z,7.21
2018-03-26T23:16:12.325Z,7.06
2018-03-26T23:18:42.739Z,6.94
2018-03-26T23:21:13.167Z,6.80
2018-03-26T23:23:43.725Z,6.81
2018-03-26T23:26:14.506Z,6.67
2018-03-26T23:28:44.989Z,6.63
2018-03-26T23:31:15.928Z,6.56
2018-03-26T23:33:46.437Z,6.35
2018-03-26T23:36:16.766Z,6.38
2018-03-26T23:38:47.847Z,6.34
2018-03-26T23:41:18.641Z,6.47
2018-03-26T23:43:49.354Z,6.33
2018-03-26T23:46:20.134Z,6.10
2018-03-26T23:48:50.520Z,6.11
2018-03-26T23:51:21.264Z,6.14
2018-03-26T23:53:53.644Z,6.10
2018-03-26T23:56:24.667Z,6.18
2018-03-26T23:58:55.190Z,6.09
